Time;durP1;ratioP1;P1;durP2;ratioP2;P2;SDS_P1;SDS_P2;PMS_P1;PMS_P2;Temp;Humidity;BMP_temperature;BMP_pressure;BME280_temperature;BME280_humidity;BME280_pressure;Samples;Min_cycle;Max_cycle;Signal;HPM_P1;HPM_P2
2021/09/16 00:00:55;;;;;;;3.13;2.27;;;23.00;66.90;;;;;;5008247;28;20194;-47
2021/09/16 00:03:21;;;;;;;2.53;2.33;;;23.00;66.70;;;;;;5011356;28;20213;-47
2021/09/16 00:05:46;;;;;;;2.37;2.27;;;22.90;66.70;;;;;;5011872;28;20741;-46
2021/09/16 00:08:12;;;;;;;2.60;2.40;;;22.80;67.00;;;;;;5002097;28;20221;-48
2021/09/16 00:10:37;;;;;;;2.60;2.10;;;22.90;67.80;;;;;;4992128;28;20202;-46
2021/09/16 00:13:03;;;;;;;1.90;1.80;;;22.90;66.70;;;;;;4991661;28;20198;-47
2021/09/16 00:15:29;;;;;;;3.00;2.50;;;22.90;66.60;;;;;;4992101;28;20213;-46
2021/09/16 00:17:54;;;;;;;1.97;1.87;;;22.90;66.40;;;;;;4991537;28;20230;-46
2021/09/16 00:20:20;;;;;;;2.30;2.07;;;23.00;66.10;;;;;;4992110;28;20887;-46
2021/09/16 00:22:46;;;;;;;1.93;1.83;;;23.20;65.80;;;;;;4990070;28;20201;-47
2021/09/16 00:25:11;;;;;;;3.83;2.03;;;23.30;65.30;;;;;;4991896;28;20273;-46
2021/09/16 00:27:37;;;;;;;5.00;2.23;;;23.40;65.10;;;;;;4991677;28;20202;-47
2021/09/16 00:30:04;;;;;;;2.50;2.07;;;23.40;65.00;;;;;;4991685;28;20205;-46
2021/09/16 00:32:29;;;;;;;2.93;2.70;;;23.30;65.00;;;;;;4991793;28;20198;-49
2021/09/16 00:34:55;;;;;;;2.53;2.33;;;23.30;65.00;;;;;;4991454;28;20429;-47
2021/09/16 00:37:21;;;;;;;2.50;2.30;;;23.30;65.60;;;;;;4991745;28;20217;-46
2021/09/16 00:39:47;;;;;;;5.83;3.40;;;23.20;66.00;;;;;;5000443;28;20202;-47
2021/09/16 00:42:16;;;;;;;4.07;2.90;;;23.20;66.30;;;;;;5011290;28;20805;-47
2021/09/16 00:44:42;;;;;;;3.67;3.20;;;23.00;66.90;;;;;;5010937;28;20255;-49
2021/09/16 00:47:08;;;;;;;5.07;2.67;;;22.90;67.30;;;;;;5011528;28;20433;-46
2021/09/16 00:49:34;;;;;;;3.27;2.63;;;22.80;67.30;;;;;;5008672;28;20428;-48
2021/09/16 00:52:00;;;;;;;2.80;2.60;;;23.00;67.10;;;;;;5011118;28;20658;-47
2021/09/16 00:54:30;;;;;;;4.03;2.23;;;23.10;66.70;;;;;;5009449;28;20562;-49
2021/09/16 00:56:57;;;;;;;3.00;2.77;;;23.00;66.60;;;;;;5001660;28;20512;-46
2021/09/16 00:59:24;;;;;;;2.30;1.97;;;23.00;66.40;;;;;;4955400;28;1117331;-46
2021/09/16 01:01:50;;;;;;;2.90;2.30;;;22.80;66.90;;;;;;5012074;28;20204;-46
2021/09/16 01:04:16;;;;;;;4.10;2.47;;;22.90;66.70;;;;;;5011419;28;20421;-49
2021/09/16 01:06:42;;;;;;;2.00;1.90;;;23.00;66.40;;;;;;5010906;28;20428;-48
2021/09/16 01:09:10;;;;;;;3.43;1.70;;;22.90;66.20;;;;;;4994691;28;20244;-46
2021/09/16 01:11:35;;;;;;;2.30;2.00;;;23.00;66.10;;;;;;4992332;28;20282;-46
2021/09/16 01:14:01;;;;;;;2.50;1.87;;;23.10;65.90;;;;;;4991856;28;20858;-46
2021/09/16 01:16:26;;;;;;;3.47;1.70;;;22.90;66.10;;;;;;4990864;28;20194;-46
2021/09/16 01:18:52;;;;;;;2.60;2.40;;;22.80;66.60;;;;;;4991437;28;20701;-48
2021/09/16 01:21:21;;;;;;;3.47;2.13;;;22.90;66.70;;;;;;4992362;28;20265;-52
2021/09/16 01:23:48;;;;;;;2.30;2.10;;;23.00;66.70;;;;;;4991347;28;20281;-48
2021/09/16 01:26:13;;;;;;;4.50;2.30;;;22.90;67.50;;;;;;4992242;28;20430;-46
2021/09/16 01:28:39;;;;;;;4.03;2.20;;;22.90;66.80;;;;;;4991149;28;20493;-46
2021/09/16 01:31:05;;;;;;;4.10;2.03;;;22.80;66.80;;;;;;4992122;28;20198;-47
2021/09/16 01:33:30;;;;;;;2.00;1.90;;;22.90;66.70;;;;;;4991306;28;20650;-46
2021/09/16 01:35:56;;;;;;;1.87;1.77;;;23.00;66.20;;;;;;4992254;28;20249;-47
2021/09/16 01:38:22;;;;;;;2.60;1.70;;;23.10;65.60;;;;;;4991055;28;20237;-46
2021/09/16 01:40:47;;;;;;;3.33;1.83;;;23.10;65.20;;;;;;5009720;28;20563;-46
2021/09/16 01:43:14;;;;;;;1.63;1.53;;;23.20;64.90;;;;;;5009172;28;20205;-46
2021/09/16 01:45:39;;;;;;;1.60;1.50;;;23.30;64.80;;;;;;5011775;28;20313;-48
2021/09/16 01:48:05;;;;;;;2.07;1.83;;;23.40;64.40;;;;;;5010708;28;20556;-46
2021/09/16 01:50:31;;;;;;;1.40;1.30;;;23.30;64.60;;;;;;5011509;28;20572;-47
2021/09/16 01:52:56;;;;;;;3.93;2.17;;;23.30;65.40;;;;;;5010872;28;20310;-46
2021/09/16 01:55:23;;;;;;;2.70;1.87;;;23.40;66.10;;;;;;5011609;28;20206;-46
2021/09/16 01:57:49;;;;;;;1.87;1.70;;;23.50;66.80;;;;;;4994590;28;20260;-46
2021/09/16 02:00:15;;;;;;;2.17;2.00;;;23.50;67.10;;;;;;5002052;28;20821;-46
2021/09/16 02:02:42;;;;;;;2.30;1.83;;;23.50;67.50;;;;;;5010898;28;20293;-46
2021/09/16 02:05:08;;;;;;;2.17;1.90;;;23.50;67.70;;;;;;5011159;28;21130;-46
2021/09/16 02:07:34;;;;;;;2.07;1.73;;;23.40;67.90;;;;;;5007043;28;20437;-47
2021/09/16 02:10:00;;;;;;;1.70;1.60;;;23.40;67.80;;;;;;4990560;28;20444;-47
2021/09/16 02:12:25;;;;;;;3.20;1.93;;;23.30;68.10;;;;;;4992045;28;20190;-46
2021/09/16 02:14:51;;;;;;;2.03;1.80;;;23.20;68.80;;;;;;4991094;28;20198;-47
2021/09/16 02:17:17;;;;;;;3.13;1.90;;;23.00;69.70;;;;;;4991871;28;20230;-46
2021/09/16 02:19:43;;;;;;;2.73;2.00;;;23.10;69.80;;;;;;4994616;28;20614;-46
2021/09/16 02:22:08;;;;;;;3.70;2.23;;;23.10;69.90;;;;;;4995212;28;20203;-46
2021/09/16 02:24:34;;;;;;;4.10;1.87;;;23.10;70.00;;;;;;4994506;28;20433;-46
2021/09/16 02:27:00;;;;;;;5.27;2.20;;;23.00;70.30;;;;;;4995064;28;20187;-46
2021/09/16 02:29:25;;;;;;;1.90;1.80;;;22.80;70.60;;;;;;4994308;28;20285;-48
2021/09/16 02:31:51;;;;;;;2.57;1.90;;;22.70;71.10;;;;;;4994917;28;20191;-46
2021/09/16 02:34:16;;;;;;;3.87;1.67;;;22.70;71.30;;;;;;4992875;28;20198;-52
2021/09/16 02:36:42;;;;;;;1.80;1.50;;;22.70;71.50;;;;;;4994521;28;20194;-46
2021/09/16 02:39:08;;;;;;;2.67;1.80;;;22.70;71.70;;;;;;4998168;28;20682;-46
2021/09/16 02:41:34;;;;;;;1.87;1.77;;;22.80;71.40;;;;;;5014624;28;20206;-48
2021/09/16 02:43:59;;;;;;;2.17;2.00;;;22.90;71.20;;;;;;5013820;28;20429;-47
2021/09/16 02:46:25;;;;;;;2.00;1.47;;;22.70;71.20;;;;;;5014120;28;20186;-47
2021/09/16 02:48:51;;;;;;;1.60;1.50;;;22.60;71.60;;;;;;5013383;28;20260;-48
2021/09/16 02:51:16;;;;;;;3.33;2.17;;;22.60;71.60;;;;;;5014324;28;20197;-46
2021/09/16 02:53:42;;;;;;;3.10;1.73;;;22.60;71.70;;;;;;5013729;28;20421;-46
2021/09/16 02:56:08;;;;;;;2.17;1.53;;;22.50;72.10;;;;;;5011028;28;20199;-48
2021/09/16 02:58:34;;;;;;;1.73;1.60;;;22.40;73.40;;;;;;4993753;28;20238;-51
2021/09/16 03:01:00;;;;;;;2.70;1.87;;;22.40;72.40;;;;;;5008990;28;20256;-46
2021/09/16 03:03:26;;;;;;;3.23;1.97;;;22.40;72.20;;;;;;5013615;28;20602;-46
2021/09/16 03:05:52;;;;;;;2.67;1.80;;;22.50;72.10;;;;;;5014064;28;20425;-45
2021/09/16 03:08:17;;;;;;;2.40;2.13;;;22.50;72.00;;;;;;5003538;28;20562;-48
2021/09/16 03:10:43;;;;;;;1.80;1.70;;;22.60;71.90;;;;;;4994266;28;20191;-47
2021/09/16 03:13:08;;;;;;;1.80;1.70;;;22.60;71.70;;;;;;4993794;28;20197;-48
2021/09/16 03:15:34;;;;;;;2.60;2.00;;;22.70;71.70;;;;;;4994284;28;20281;-46
2021/09/16 03:18:00;;;;;;;2.93;1.73;;;22.70;71.60;;;;;;4992933;28;20237;-47
2021/09/16 03:20:26;;;;;;;2.00;1.80;;;22.70;71.60;;;;;;4994223;28;20623;-46
2021/09/16 03:22:52;;;;;;;1.80;1.60;;;22.60;71.40;;;;;;4993442;28;20709;-46
2021/09/16 03:25:17;;;;;;;1.90;1.47;;;22.60;71.80;;;;;;4993670;28;20428;-45
2021/09/16 03:27:43;;;;;;;1.60;1.50;;;22.40;72.00;;;;;;4991532;28;20199;-46
2021/09/16 03:30:12;;;;;;;1.80;1.70;;;22.30;72.70;;;;;;4992976;28;20190;-45
2021/09/16 03:32:39;;;;;;;3.00;2.00;;;22.40;72.50;;;;;;4993426;28;20438;-47
2021/09/16 03:35:05;;;;;;;3.77;1.70;;;22.50;72.10;;;;;;4993559;28;20947;-46
2021/09/16 03:37:31;;;;;;;2.40;1.90;;;22.60;71.90;;;;;;4993445;28;20434;-46
2021/09/16 03:39:57;;;;;;;1.97;1.87;;;22.60;71.70;;;;;;5004011;28;20425;-46
2021/09/16 03:42:22;;;;;;;2.10;1.70;;;22.70;71.50;;;;;;5013248;28;20221;-46
2021/09/16 03:44:48;;;;;;;1.83;1.73;;;22.80;71.20;;;;;;5012495;28;20232;-46
2021/09/16 03:47:14;;;;;;;2.00;1.90;;;22.90;71.30;;;;;;5013116;28;20597;-47
2021/09/16 03:49:41;;;;;;;3.53;2.70;;;22.80;71.40;;;;;;5011888;28;20197;-45
2021/09/16 03:52:08;;;;;;;7.30;2.30;;;22.80;71.50;;;;;;5013132;28;20516;-47
2021/09/16 03:54:34;;;;;;;3.70;3.10;;;22.80;71.70;;;;;;5010876;28;20424;-50
2021/09/16 03:57:01;;;;;;;3.03;2.57;;;22.70;71.50;;;;;;5003584;28;20426;-47
2021/09/16 03:59:26;;;;;;;3.60;2.97;;;22.60;72.00;;;;;;4994632;28;20980;-46
2021/09/16 04:01:52;;;;;;;6.00;2.80;;;22.40;72.70;;;;;;5013176;28;20483;-46
2021/09/16 04:04:18;;;;;;;4.60;2.90;;;22.40;72.70;;;;;;5012409;28;20190;-49
2021/09/16 04:06:43;;;;;;;3.50;3.20;;;22.20;73.40;;;;;;5012670;28;20208;-46
2021/09/16 04:09:09;;;;;;;4.13;2.70;;;22.00;74.40;;;;;;4995364;28;20194;-45
2021/09/16 04:11:35;;;;;;;3.73;2.50;;;22.10;74.60;;;;;;4993153;28;20669;-47
2021/09/16 04:14:00;;;;;;;2.87;2.57;;;22.10;74.60;;;;;;4992451;28;20686;-46
2021/09/16 04:16:26;;;;;;;2.90;2.30;;;22.00;74.90;;;;;;4993014;28;20194;-47
2021/09/16 04:18:51;;;;;;;2.70;2.47;;;22.00;75.10;;;;;;4991933;28;20705;-46
2021/09/16 04:21:17;;;;;;;2.57;2.20;;;22.00;74.80;;;;;;4991493;28;20195;-45
2021/09/16 04:23:43;;;;;;;4.60;2.33;;;21.90;75.00;;;;;;4992498;28;20202;-46
2021/09/16 04:26:08;;;;;;;2.30;2.10;;;21.90;75.20;;;;;;4992928;28;20195;-46
2021/09/16 04:28:34;;;;;;;3.73;2.40;;;22.10;75.10;;;;;;4991727;28;20221;-46
2021/09/16 04:30:59;;;;;;;2.53;2.23;;;22.20;74.70;;;;;;4992866;28;20552;-46
2021/09/16 04:33:25;;;;;;;2.80;2.50;;;22.30;74.10;;;;;;4992179;28;20195;-46
2021/09/16 04:35:51;;;;;;;3.50;2.40;;;22.20;74.30;;;;;;4992504;28;20198;-49
2021/09/16 04:38:16;;;;;;;2.87;2.57;;;22.20;74.10;;;;;;4991737;28;20678;-45
2021/09/16 04:40:43;;;;;;;3.50;2.53;;;22.10;74.70;;;;;;5009529;28;20194;-46
2021/09/16 04:43:09;;;;;;;3.93;2.60;;;22.20;74.80;;;;;;5011881;28;20198;-46
2021/09/16 04:45:35;;;;;;;4.97;2.33;;;22.30;74.40;;;;;;5011843;28;20437;-46
2021/09/16 04:48:00;;;;;;;6.67;2.73;;;22.20;74.30;;;;;;5009345;28;20992;-46
2021/09/16 04:50:26;;;;;;;6.83;2.53;;;22.00;74.90;;;;;;5012338;28;20200;-47
2021/09/16 04:52:52;;;;;;;2.60;2.40;;;21.90;75.40;;;;;;5011425;28;20276;-46
2021/09/16 04:55:18;;;;;;;2.93;2.40;;;22.00;75.40;;;;;;5012080;28;20190;-50
2021/09/16 04:57:44;;;;;;;5.00;2.53;;;22.20;75.00;;;;;;4994737;28;20496;-45
2021/09/16 05:00:10;;;;;;;3.53;2.90;;;22.20;74.50;;;;;;5001996;28;20268;-45
2021/09/16 05:02:35;;;;;;;3.00;2.70;;;22.30;74.20;;;;;;5011585;28;20281;-46
2021/09/16 05:05:01;;;;;;;3.10;2.60;;;22.30;74.20;;;;;;5011675;28;20429;-46
2021/09/16 05:07:27;;;;;;;6.77;2.80;;;22.40;73.60;;;;;;5008973;28;20190;-45
2021/09/16 05:09:52;;;;;;;5.77;2.93;;;22.40;73.30;;;;;;4992091;28;20221;-45
2021/09/16 05:12:18;;;;;;;2.80;2.37;;;22.40;73.60;;;;;;4992394;28;20195;-47
2021/09/16 05:14:43;;;;;;;6.70;2.83;;;22.40;73.70;;;;;;4990367;28;20538;-47
2021/09/16 05:17:09;;;;;;;8.20;2.70;;;22.40;73.60;;;;;;4992069;28;20205;-46
2021/09/16 05:19:35;;;;;;;3.20;2.40;;;22.50;73.40;;;;;;4991098;28;20308;-46
2021/09/16 05:22:01;;;;;;;3.40;2.90;;;22.60;73.00;;;;;;4992217;28;20234;-48
2021/09/16 05:24:27;;;;;;;3.73;2.20;;;22.70;72.70;;;;;;4991784;28;20497;-46
2021/09/16 05:26:53;;;;;;;4.17;2.67;;;22.70;72.50;;;;;;4992074;28;20194;-47
2021/09/16 05:29:18;;;;;;;3.73;2.33;;;22.70;72.50;;;;;;4991573;28;20192;-46
2021/09/16 05:31:44;;;;;;;3.27;2.03;;;22.70;72.30;;;;;;4992174;28;20559;-48
2021/09/16 05:34:09;;;;;;;4.60;2.27;;;22.70;72.10;;;;;;4991853;28;20219;-46
2021/09/16 05:36:35;;;;;;;7.90;2.40;;;22.80;72.20;;;;;;4991943;28;20721;-46
2021/09/16 05:39:01;;;;;;;5.77;2.40;;;22.80;72.10;;;;;;4994352;28;20214;-46
2021/09/16 05:41:26;;;;;;;3.53;2.83;;;22.80;72.10;;;;;;5009994;28;20194;-46
2021/09/16 05:43:53;;;;;;;5.63;2.57;;;22.90;72.00;;;;;;5011196;28;20245;-46
2021/09/16 05:46:18;;;;;;;4.90;2.90;;;22.90;72.10;;;;;;5011508;28;20194;-46
2021/09/16 05:48:44;;;;;;;2.80;2.60;;;22.90;72.10;;;;;;5010416;28;20427;-46
2021/09/16 05:51:09;;;;;;;4.07;2.73;;;22.90;72.20;;;;;;5011458;28;20216;-46
2021/09/16 05:53:37;;;;;;;2.57;2.37;;;23.00;72.30;;;;;;5013159;28;20266;-51
2021/09/16 05:56:02;;;;;;;2.40;2.20;;;23.00;72.30;;;;;;5012625;28;20190;-47
2021/09/16 05:58:28;;;;;;;2.90;2.37;;;23.00;72.20;;;;;;4994606;28;20493;-47
2021/09/16 06:00:54;;;;;;;2.90;2.43;;;23.00;72.10;;;;;;5010955;28;20417;-46
2021/09/16 06:03:19;;;;;;;2.50;1.83;;;23.00;72.00;;;;;;5014508;28;20564;-49
2021/09/16 06:05:45;;;;;;;3.20;2.57;;;22.90;72.30;;;;;;5014461;28;20221;-50
2021/09/16 06:08:10;;;;;;;2.90;2.10;;;22.80;72.90;;;;;;5004379;28;20689;-46
2021/09/16 06:10:36;;;;;;;3.23;2.60;;;22.80;72.90;;;;;;4995439;28;20195;-46
2021/09/16 06:13:02;;;;;;;3.23;2.40;;;22.80;72.80;;;;;;4994751;28;20194;-48
2021/09/16 06:15:27;;;;;;;7.00;3.20;;;22.80;72.60;;;;;;4994954;28;20204;-48
2021/09/16 06:17:53;;;;;;;3.60;2.40;;;22.80;72.70;;;;;;4994216;28;20713;-46
2021/09/16 06:20:18;;;;;;;3.13;2.47;;;22.80;72.90;;;;;;4995167;28;20226;-48
2021/09/16 06:22:46;;;;;;;3.23;2.30;;;22.80;73.10;;;;;;4994625;28;20191;-49
2021/09/16 06:25:14;;;;;;;3.37;2.70;;;22.80;73.00;;;;;;4994969;28;20202;-46
2021/09/16 06:27:40;;;;;;;5.57;3.00;;;22.60;73.20;;;;;;4993853;28;20437;-47
2021/09/16 06:30:06;;;;;;;3.67;3.00;;;22.70;73.60;;;;;;4994971;28;20596;-46
2021/09/16 06:32:33;;;;;;;5.73;3.40;;;22.50;73.60;;;;;;4993715;28;20441;-47
2021/09/16 06:34:59;;;;;;;4.67;3.30;;;22.40;74.90;;;;;;4994267;28;20522;-47
2021/09/16 06:37:25;;;;;;;5.13;3.40;;;22.30;75.40;;;;;;4994573;28;20437;-50
2021/09/16 06:39:50;;;;;;;5.47;4.33;;;22.20;75.90;;;;;;5004275;28;20429;-49
2021/09/16 06:42:16;;;;;;;3.67;3.13;;;22.30;75.90;;;;;;5014537;28;20658;-46
2021/09/16 06:44:41;;;;;;;4.13;3.50;;;22.20;76.40;;;;;;5013659;28;20229;-46
2021/09/16 06:47:07;;;;;;;5.30;3.37;;;22.10;76.60;;;;;;5013949;28;20205;-47
2021/09/16 06:49:39;;;;;;;6.03;3.20;;;22.00;77.30;;;;;;5013098;28;20268;-46
2021/09/16 06:52:04;;;;;;;3.43;3.13;;;22.10;77.60;;;;;;5014265;28;20557;-46
2021/09/16 06:54:30;;;;;;;3.53;3.23;;;22.00;77.70;;;;;;5013486;28;20428;-48
2021/09/16 06:56:55;;;;;;;7.70;3.50;;;22.00;77.80;;;;;;5005193;28;20658;-46
2021/09/16 06:59:21;;;;;;;7.50;2.90;;;22.20;77.40;;;;;;4994264;28;20233;-47
2021/09/16 07:01:47;;;;;;;5.13;4.13;;;22.40;76.90;;;;;;5014243;28;20190;-47
2021/09/16 07:04:12;;;;;;;5.27;3.17;;;22.50;76.40;;;;;;5013287;28;20229;-47
2021/09/16 07:06:38;;;;;;;8.23;3.30;;;22.60;76.00;;;;;;5013652;28;20201;-46
2021/09/16 07:09:04;;;;;;;3.57;2.63;;;22.80;75.60;;;;;;4997424;28;20195;-47
2021/09/16 07:11:29;;;;;;;3.87;2.80;;;22.90;75.10;;;;;;4994327;28;20914;-46
2021/09/16 07:13:55;;;;;;;4.73;3.67;;;23.00;74.70;;;;;;4993698;28;20241;-51
2021/09/16 07:16:21;;;;;;;3.60;2.83;;;23.00;74.30;;;;;;4994222;28;20253;-48
2021/09/16 07:18:46;;;;;;;4.97;2.80;;;23.10;74.00;;;;;;4993243;28;20233;-47
2021/09/16 07:21:12;;;;;;;4.23;3.10;;;23.20;73.90;;;;;;4994183;28;20323;-46
2021/09/16 07:23:37;;;;;;;3.40;3.10;;;23.20;73.60;;;;;;4993447;28;20190;-46
2021/09/16 07:26:03;;;;;;;4.17;3.20;;;23.20;73.40;;;;;;4992139;28;20549;-47
2021/09/16 07:28:34;;;;;;;3.60;3.13;;;23.20;73.40;;;;;;4993108;28;20194;-53
2021/09/16 07:31:00;;;;;;;3.67;2.57;;;23.30;73.30;;;;;;4993987;28;20658;-47
2021/09/16 07:33:25;;;;;;;4.60;2.77;;;23.30;73.10;;;;;;4993444;28;20441;-47
2021/09/16 07:35:51;;;;;;;5.00;3.43;;;23.30;73.00;;;;;;4993872;28;20241;-47
2021/09/16 07:38:16;;;;;;;3.83;3.30;;;23.30;73.00;;;;;;4992845;28;20222;-46
2021/09/16 07:40:42;;;;;;;3.20;2.90;;;23.30;72.80;;;;;;5010710;28;20553;-46
2021/09/16 07:43:09;;;;;;;4.00;3.10;;;23.30;72.70;;;;;;5012503;28;20285;-46
2021/09/16 07:45:35;;;;;;;5.37;3.10;;;23.10;74.00;;;;;;5012891;28;20659;-48
2021/09/16 07:48:01;;;;;;;6.03;3.37;;;23.10;74.30;;;;;;5012282;28;20431;-50
2021/09/16 07:50:27;;;;;;;3.93;3.50;;;23.20;74.10;;;;;;5013271;28;20806;-47
2021/09/16 07:52:52;;;;;;;3.20;3.00;;;23.20;73.50;;;;;;5010851;28;20652;-46
2021/09/16 07:55:18;;;;;;;5.10;3.00;;;23.30;73.30;;;;;;5012699;28;20193;-49
2021/09/16 07:57:44;;;;;;;4.23;3.10;;;23.40;73.20;;;;;;4996480;28;20269;-49
2021/09/16 08:00:10;;;;;;;3.97;3.57;;;23.50;73.30;;;;;;5002733;28;20580;-46
2021/09/16 08:02:47;;;;;;;4.90;3.17;;;23.50;73.10;;;;;;5012575;28;20206;-49
2021/09/16 08:05:13;;;;;;;3.87;3.20;;;23.50;72.80;;;;;;5012827;28;20429;-46
2021/09/16 08:07:39;;;;;;;13.10;4.00;;;23.50;72.70;;;;;;5007487;28;20449;-48
2021/09/16 08:10:05;;;;;;;5.70;3.80;;;23.60;72.90;;;;;;4993011;28;20448;-47
2021/09/16 08:12:30;;;;;;;3.50;3.10;;;23.60;72.80;;;;;;4992849;28;20209;-47
2021/09/16 08:14:56;;;;;;;5.90;3.80;;;23.60;72.80;;;;;;4992555;28;20536;-47
2021/09/16 08:17:22;;;;;;;4.30;3.90;;;23.60;72.80;;;;;;4992385;28;20717;-46
2021/09/16 08:19:47;;;;;;;8.37;4.37;;;23.60;72.90;;;;;;4990777;28;20305;-46
2021/09/16 08:22:13;;;;;;;7.23;4.10;;;23.60;73.00;;;;;;4992923;28;20666;-48
2021/09/16 08:24:39;;;;;;;7.77;5.93;;;23.60;73.50;;;;;;4992104;28;20285;-47
2021/09/16 08:27:04;;;;;;;9.60;8.23;;;23.40;73.70;;;;;;4992558;28;20206;-51
2021/09/16 08:29:30;;;;;;;10.33;9.23;;;23.20;73.90;;;;;;4992349;28;20198;-47
2021/09/16 08:31:56;;;;;;;10.83;9.70;;;23.00;74.00;;;;;;4992993;28;20190;-46
2021/09/16 08:34:26;;;;;;;11.60;10.00;;;22.90;74.60;;;;;;4992049;28;20422;-47
2021/09/16 08:36:52;;;;;;;10.27;9.20;;;22.90;74.20;;;;;;4992931;28;20233;-45
2021/09/16 08:39:18;;;;;;;9.83;8.30;;;23.00;74.30;;;;;;4997319;28;20590;-46
2021/09/16 08:41:44;;;;;;;10.97;9.57;;;22.90;74.40;;;;;;5011918;28;20504;-47
2021/09/16 08:44:11;;;;;;;10.70;9.60;;;23.00;74.00;;;;;;5011640;28;20852;-46
2021/09/16 08:46:37;;;;;;;9.87;8.80;;;23.10;73.90;;;;;;5010591;28;20459;-46
2021/09/16 08:49:03;;;;;;;9.20;8.30;;;22.90;74.30;;;;;;5011292;28;20425;-47
2021/09/16 08:51:29;;;;;;;6.40;5.80;;;23.00;74.20;;;;;;5012229;28;20861;-46
2021/09/16 08:53:55;;;;;;;5.70;5.10;;;22.90;74.50;;;;;;5011580;28;20564;-46
2021/09/16 08:56:22;;;;;;;5.47;4.97;;;22.80;74.00;;;;;;5006891;28;20481;-46
2021/09/16 08:58:49;;;;;;;4.70;4.30;;;22.70;74.30;;;;;;4991625;28;20502;-48
2021/09/16 09:01:16;;;;;;;5.43;4.93;;;22.70;74.30;;;;;;5010149;28;20522;-46
2021/09/16 09:03:42;;;;;;;4.23;3.93;;;22.70;74.50;;;;;;5011467;28;20427;-46
2021/09/16 09:06:37;;;;;;;5.10;4.70;;;22.70;74.60;;;;;;5011833;28;20516;-46
2021/09/16 09:09:06;;;;;;;4.03;3.57;;;22.70;74.50;;;;;;4995198;28;20202;-46
2021/09/16 09:11:32;;;;;;;3.40;3.20;;;22.70;74.90;;;;;;4990253;28;20473;-46
2021/09/16 09:13:58;;;;;;;3.30;3.10;;;22.80;74.90;;;;;;4991951;28;20787;-47
2021/09/16 09:16:34;;;;;;;3.50;3.20;;;22.90;74.40;;;;;;4992403;28;20191;-46
2021/09/16 09:19:15;;;;;;;4.27;3.97;;;22.90;74.30;;;;;;4991255;28;20234;-46
2021/09/16 09:21:40;;;;;;;5.63;5.13;;;23.00;73.80;;;;;;4992090;28;20440;-46
2021/09/16 09:24:06;;;;;;;5.40;4.90;;;22.90;73.20;;;;;;4998221;28;20900;-48
2021/09/16 09:26:34;;;;;;;5.73;5.33;;;22.70;73.80;;;;;;5011742;28;20244;-47
2021/09/16 09:29:09;;;;;;;6.40;5.90;;;22.80;74.70;;;;;;5013921;28;20197;-47
2021/09/16 09:31:40;;;;;;;6.20;5.70;;;22.80;73.20;;;;;;5015671;28;20861;-46
2021/09/16 09:34:27;;;;;;;5.67;5.20;;;22.80;73.00;;;;;;5015438;28;20429;-48
2021/09/16 09:37:06;;;;;;;5.17;4.67;;;22.80;73.70;;;;;;5015405;28;20548;-46
2021/09/16 09:39:32;;;;;;;5.40;5.00;;;22.70;73.80;;;;;;5013367;28;20480;-46
2021/09/16 09:42:21;;;;;;;5.50;5.03;;;22.80;73.30;;;;;;5015763;28;20838;-46
2021/09/16 09:44:48;;;;;;;6.00;5.50;;;22.70;73.30;;;;;;5014811;28;20264;-47
2021/09/16 09:47:14;;;;;;;5.80;5.30;;;22.70;73.60;;;;;;5015105;28;20437;-47
2021/09/16 09:49:40;;;;;;;6.30;5.80;;;22.80;73.00;;;;;;5014450;28;20916;-47
2021/09/16 09:52:07;;;;;;;5.30;4.80;;;22.70;72.10;;;;;;5015338;28;20444;-48
2021/09/16 09:54:41;;;;;;;5.80;5.40;;;22.70;72.00;;;;;;5014726;28;20685;-47
2021/09/16 09:57:15;;;;;;;6.27;5.77;;;22.80;71.90;;;;;;4995108;28;20949;-46
2021/09/16 09:59:50;;;;;;;5.97;5.47;;;22.70;71.90;;;;;;5000066;28;20519;-47
2021/09/16 10:02:17;;;;;;;7.40;6.70;;;22.70;71.90;;;;;;5015227;28;20457;-48
2021/09/16 10:04:44;;;;;;;7.10;6.37;;;22.60;71.80;;;;;;5012795;28;20775;-46
2021/09/16 10:07:09;;;;;;;7.10;6.50;;;22.60;71.60;;;;;;5014799;28;20529;-46
2021/09/16 10:09:36;;;;;;;7.40;6.70;;;22.70;71.60;;;;;;5008175;28;20430;-46
2021/09/16 10:12:02;;;;;;;8.17;7.57;;;22.70;71.80;;;;;;4995571;28;20639;-47
2021/09/16 10:14:27;;;;;;;8.60;7.70;;;22.80;71.40;;;;;;4994770;28;20436;-46
2021/09/16 10:16:53;;;;;;;8.43;7.63;;;22.90;71.20;;;;;;4995048;28;20222;-48
2021/09/16 10:19:19;;;;;;;8.37;7.57;;;23.00;70.80;;;;;;4994557;28;20737;-49
2021/09/16 10:21:45;;;;;;;9.47;8.47;;;23.10;70.70;;;;;;4995279;28;20647;-46
2021/09/16 10:24:17;;;;;;;8.00;7.27;;;23.00;70.40;;;;;;4994833;28;20460;-48
2021/09/16 10:26:49;;;;;;;7.93;7.23;;;22.90;70.10;;;;;;4994822;28;20442;-47
2021/09/16 10:29:27;;;;;;;8.10;7.30;;;22.80;69.40;;;;;;4994177;28;20460;-46
2021/09/16 10:32:13;;;;;;;8.73;7.93;;;22.80;69.60;;;;;;4993290;28;20540;-47
2021/09/16 10:34:50;;;;;;;8.70;8.00;;;22.80;69.50;;;;;;4993552;28;20533;-47
2021/09/16 10:37:20;;;;;;;8.63;7.93;;;22.80;69.50;;;;;;4994523;28;20438;-47
2021/09/16 10:39:47;;;;;;;8.80;8.10;;;22.80;69.20;;;;;;5003066;28;20472;-48
2021/09/16 10:42:14;;;;;;;8.60;7.70;;;22.80;69.00;;;;;;5014603;28;20421;-46
2021/09/16 10:44:42;;;;;;;7.13;6.53;;;22.80;68.80;;;;;;5013629;28;20925;-47
2021/09/16 10:47:16;;;;;;;7.53;6.83;;;22.70;68.40;;;;;;5013897;28;20515;-46
2021/09/16 10:49:42;;;;;;;7.10;6.50;;;22.70;68.50;;;;;;5013668;28;20444;-46
2021/09/16 10:52:11;;;;;;;8.47;7.67;;;22.60;68.30;;;;;;5014188;28;20988;-49
2021/09/16 10:54:38;;;;;;;8.30;7.57;;;22.40;69.00;;;;;;5013503;28;20929;-46
2021/09/16 10:57:40;;;;;;;10.13;9.17;;;22.40;68.80;;;;;;5003193;28;20444;-48
2021/09/16 11:00:11;;;;;;;9.37;8.40;;;22.40;68.60;;;;;;5002059;28;20452;-47
2021/09/16 11:02:39;;;;;;;10.53;9.43;;;22.40;68.70;;;;;;5013753;28;20495;-46
2021/09/16 11:05:16;;;;;;;10.47;9.27;;;22.40;69.00;;;;;;5013985;28;20437;-47
2021/09/16 11:07:42;;;;;;;12.57;10.30;;;22.40;68.90;;;;;;5008203;28;20444;-47
2021/09/16 11:10:15;;;;;;;11.50;10.30;;;22.40;69.10;;;;;;4994303;28;20477;-47
2021/09/16 11:12:54;;;;;;;12.50;10.50;;;22.50;68.90;;;;;;4993829;28;20441;-46
2021/09/16 11:15:28;;;;;;;11.70;10.33;;;22.30;69.20;;;;;;4994188;28;20512;-46
2021/09/16 11:18:16;;;;;;;15.40;11.67;;;22.30;69.00;;;;;;4993096;28;21311;-48
2021/09/16 11:20:45;;;;;;;15.50;12.60;;;22.30;69.20;;;;;;4994186;28;20441;-46
2021/09/16 11:23:11;;;;;;;12.70;11.50;;;22.40;69.20;;;;;;4993593;28;20492;-47
2021/09/16 11:25:39;;;;;;;12.73;11.43;;;22.30;69.20;;;;;;4992171;28;20968;-46
2021/09/16 11:28:05;;;;;;;14.23;12.40;;;22.20;69.40;;;;;;4992968;28;20434;-46
2021/09/16 11:30:31;;;;;;;13.50;12.03;;;22.20;69.40;;;;;;4993810;28;20440;-48
2021/09/16 11:33:14;;;;;;;15.07;12.07;;;22.40;69.10;;;;;;4993714;28;20205;-46
2021/09/16 11:35:40;;;;;;;14.93;13.20;;;22.40;69.00;;;;;;5001509;28;20629;-46
2021/09/16 11:38:07;;;;;;;16.63;12.10;;;22.50;68.80;;;;;;5012392;28;20500;-46
2021/09/16 11:40:38;;;;;;;13.23;11.50;;;22.60;68.50;;;;;;5013308;28;20436;-46
2021/09/16 11:43:11;;;;;;;13.17;11.73;;;22.60;68.60;;;;;;5012737;28;20413;-48
2021/09/16 11:45:45;;;;;;;15.30;12.60;;;22.60;68.40;;;;;;5013369;28;20428;-46
2021/09/16 11:48:20;;;;;;;12.20;11.00;;;22.60;69.00;;;;;;5012266;28;20440;-46
2021/09/16 11:50:48;;;;;;;13.57;12.17;;;22.60;68.90;;;;;;5010813;28;20482;-47
2021/09/16 11:53:19;;;;;;;12.17;10.93;;;22.60;68.80;;;;;;5012571;28;20429;-46
2021/09/16 11:55:47;;;;;;;13.73;11.63;;;22.50;69.50;;;;;;5012901;28;20579;-46
2021/09/16 11:58:21;;;;;;;13.97;12.30;;;22.40;69.30;;;;;;4992643;28;20844;-46
2021/09/16 12:01:01;;;;;;;15.87;12.57;;;22.40;69.10;;;;;;5007756;28;20436;-47
2021/09/16 12:03:31;;;;;;;12.80;11.50;;;22.50;68.80;;;;;;5012526;28;20908;-45
2021/09/16 12:06:10;;;;;;;13.53;12.03;;;22.60;68.70;;;;;;5013019;28;20423;-46
2021/09/16 12:08:59;;;;;;;14.27;12.77;;;22.70;68.90;;;;;;5000108;28;20429;-46
2021/09/16 12:11:28;;;;;;;14.00;11.23;;;22.70;68.60;;;;;;4993372;28;20443;-46
2021/09/16 12:13:59;;;;;;;13.50;12.13;;;22.80;68.40;;;;;;4992408;28;20438;-46
2021/09/16 12:16:33;;;;;;;14.87;12.13;;;22.80;68.40;;;;;;4992241;28;20429;-48
2021/09/16 12:19:02;;;;;;;13.57;11.60;;;22.80;67.60;;;;;;4991822;28;20485;-46
2021/09/16 12:21:37;;;;;;;12.83;11.50;;;22.90;67.80;;;;;;4993235;28;20794;-47
2021/09/16 12:24:15;;;;;;;12.17;11.03;;;22.90;67.70;;;;;;4992138;28;20440;-48
2021/09/16 12:26:43;;;;;;;13.97;12.47;;;23.00;67.40;;;;;;4992460;28;20433;-47
2021/09/16 12:29:11;;;;;;;12.17;10.97;;;23.00;67.20;;;;;;4992513;28;20870;-47
2021/09/16 12:31:57;;;;;;;18.67;12.60;;;23.00;66.80;;;;;;4992688;28;20430;-46
2021/09/16 12:34:28;;;;;;;13.23;11.93;;;23.00;67.20;;;;;;4992011;28;20432;-48
2021/09/16 12:36:57;;;;;;;12.17;10.87;;;23.10;67.00;;;;;;4992550;28;20430;-46
2021/09/16 12:39:24;;;;;;;15.50;10.80;;;23.10;67.20;;;;;;4998332;28;20913;-46
2021/09/16 12:41:49;;;;;;;12.40;11.10;;;23.00;67.40;;;;;;5012283;28;20455;-46
2021/09/16 12:44:18;;;;;;;13.73;11.30;;;23.00;67.00;;;;;;5010331;28;20417;-46